Time;durP1;ratioP1;P1;durP2;ratioP2;P2;SDS_P1;SDS_P2;PMS_P1;PMS_P2;Temp;Humidity;BMP_temperature;BMP_pressure;BME280_temperature;BME280_humidity;BME280_pressure;Samples;Min_cycle;Max_cycle;Signal;HPM_P1;HPM_P2
2022/08/23 00:00:17;;;;;;;1.77;1.13;;;;;;;;;;10463938;28;20036;-52
2022/08/23 00:05:19;;;;;;;1.15;0.95;;;;;;;;;;10465486;28;20050;-52
2022/08/23 00:10:19;;;;;;;2.30;1.35;;;;;;;;;;10451848;28;20435;-55
2022/08/23 00:15:20;;;;;;;2.67;1.38;;;;;;;;;;10449618;28;20029;-52
2022/08/23 00:20:21;;;;;;;2.90;1.23;;;;;;;;;;10452146;28;20039;-57
2022/08/23 00:25:22;;;;;;;1.08;1.00;;;;;;;;;;10446700;28;21481;-56
2022/08/23 00:30:22;;;;;;;2.40;1.10;;;;;;;;;;10448375;28;20025;-54
2022/08/23 00:35:23;;;;;;;2.00;1.30;;;;;;;;;;10449226;28;20045;-57
2022/08/23 00:40:24;;;;;;;2.58;1.00;;;;;;;;;;10451484;28;20283;-55
2022/08/23 00:51:11;;;;;;;1.10;1.00;;;;;;;;;;10452945;28;20488;-54
2022/08/23 00:56:16;;;;;;;3.17;1.00;;;;;;;;;;10453134;28;20021;-57
2022/08/23 01:01:18;;;;;;;2.47;1.15;;;;;;;;;;10452981;28;20025;-57
2022/08/23 01:06:54;;;;;;;1.27;1.15;;;;;;;;;;10459066;28;20189;-57
2022/08/23 01:12:09;;;;;;;1.58;1.20;;;;;;;;;;10459817;28;20040;-49
2022/08/23 01:17:28;;;;;;;1.55;1.00;;;;;;;;;;10447341;28;20069;-54
2022/08/23 01:22:40;;;;;;;2.15;1.08;;;;;;;;;;10448779;28;20498;-51
2022/08/23 01:27:42;;;;;;;3.10;1.10;;;;;;;;;;10468327;28;20044;-52
2022/08/23 01:32:49;;;;;;;3.78;1.10;;;;;;;;;;10459050;28;20028;-52
2022/08/23 01:37:50;;;;;;;1.08;1.05;;;;;;;;;;10472735;28;20025;-52
2022/08/23 01:42:51;;;;;;;3.20;1.10;;;;;;;;;;10461357;28;20051;-49
2022/08/23 01:47:51;;;;;;;3.13;1.67;;;;;;;;;;10467023;28;20024;-51
2022/08/23 01:52:52;;;;;;;4.70;0.90;;;;;;;;;;10465499;28;20070;-51
2022/08/23 01:57:56;;;;;;;1.20;1.10;;;;;;;;;;10474713;28;20021;-48
2022/08/23 02:02:59;;;;;;;4.45;1.17;;;;;;;;;;10466296;28;20025;-55
2022/08/23 02:08:59;;;;;;;2.42;1.00;;;;;;;;;;10470347;28;20514;-57
2022/08/23 02:13:21;;;;;;;2.67;1.30;;;;;;;;;;10456096;28;20033;-53
2022/08/23 02:18:21;;;;;;;1.88;0.93;;;;;;;;;;10453466;28;20025;-51
2022/08/23 02:23:22;;;;;;;3.30;1.20;;;;;;;;;;10479555;28;20102;-49
2022/08/23 02:28:23;;;;;;;4.50;1.13;;;;;;;;;;10468298;28;20016;-51
2022/08/23 02:33:24;;;;;;;2.13;1.10;;;;;;;;;;10447829;28;20052;-51
2022/08/23 02:38:24;;;;;;;2.22;1.00;;;;;;;;;;10448537;28;20082;-51
2022/08/23 02:43:25;;;;;;;1.17;1.00;;;;;;;;;;10454174;28;20029;-51
2022/08/23 02:48:26;;;;;;;6.38;1.08;;;;;;;;;;10450340;28;20053;-59
2022/08/23 02:53:26;;;;;;;2.00;0.95;;;;;;;;;;10452558;28;20051;-58
2022/08/23 02:58:27;;;;;;;1.10;1.00;;;;;;;;;;10453558;28;20032;-58
2022/08/23 03:03:28;;;;;;;1.10;1.00;;;;;;;;;;10451469;28;20025;-54
2022/08/23 03:08:29;;;;;;;2.55;0.90;;;;;;;;;;10459107;28;20039;-59
2022/08/23 03:13:30;;;;;;;1.10;0.98;;;;;;;;;;10465182;28;20024;-59
2022/08/23 03:18:30;;;;;;;1.15;0.85;;;;;;;;;;10479660;28;20490;-58
2022/08/23 03:23:33;;;;;;;2.33;1.45;;;;;;;;;;10474723;28;20108;-58
2022/08/23 03:28:36;;;;;;;0.80;0.80;;;;;;;;;;10466154;28;20362;-59
2022/08/23 03:33:37;;;;;;;1.25;1.00;;;;;;;;;;10451150;28;20033;-58
2022/08/23 03:38:40;;;;;;;1.98;1.00;;;;;;;;;;10451463;28;20492;-59
2022/08/23 03:43:40;;;;;;;1.27;1.13;;;;;;;;;;10470735;28;20033;-57
2022/08/23 03:48:41;;;;;;;0.95;0.82;;;;;;;;;;10460813;28;20047;-58
2022/08/23 03:53:42;;;;;;;5.55;1.08;;;;;;;;;;10451850;28;20103;-59
2022/08/23 03:58:42;;;;;;;0.88;0.88;;;;;;;;;;10459662;28;20041;-58
2022/08/23 04:03:43;;;;;;;0.90;0.90;;;;;;;;;;10449751;28;20032;-59
2022/08/23 04:08:45;;;;;;;0.80;0.73;;;;;;;;;;10463365;28;20025;-59
2022/08/23 04:13:46;;;;;;;0.95;0.90;;;;;;;;;;10477410;28;20434;-59
2022/08/23 04:18:47;;;;;;;7.53;0.98;;;;;;;;;;10477720;28;20460;-59
2022/08/23 04:23:48;;;;;;;1.88;1.02;;;;;;;;;;10477135;28;20096;-52
2022/08/23 04:28:50;;;;;;;2.25;0.93;;;;;;;;;;10463731;28;20051;-50
2022/08/23 04:33:50;;;;;;;3.53;0.93;;;;;;;;;;10478018;28;20036;-51
2022/08/23 04:38:51;;;;;;;1.48;0.88;;;;;;;;;;10444885;28;20028;-49
2022/08/23 04:43:52;;;;;;;1.83;0.88;;;;;;;;;;10448970;28;20112;-57
2022/08/23 04:48:52;;;;;;;2.17;0.95;;;;;;;;;;10448696;28;20385;-52
2022/08/23 04:53:54;;;;;;;1.60;0.80;;;;;;;;;;10446791;28;20037;-57
2022/08/23 04:58:54;;;;;;;1.58;0.80;;;;;;;;;;10454411;28;20484;-56
2022/08/23 05:03:55;;;;;;;4.05;0.98;;;;;;;;;;10462768;28;20087;-47
2022/08/23 05:08:57;;;;;;;2.67;1.00;;;;;;;;;;10456827;28;20508;-48
2022/08/23 05:13:57;;;;;;;1.63;1.00;;;;;;;;;;10452634;28;20052;-48
2022/08/23 05:18:58;;;;;;;1.33;0.80;;;;;;;;;;10486445;28;20457;-50
2022/08/23 05:23:59;;;;;;;1.05;0.95;;;;;;;;;;10488635;28;20040;-58
2022/08/23 05:29:00;;;;;;;3.00;0.90;;;;;;;;;;10486645;28;20500;-58
2022/08/23 05:34:01;;;;;;;1.58;1.08;;;;;;;;;;10461376;28;20037;-58
2022/08/23 05:39:02;;;;;;;1.55;1.00;;;;;;;;;;10462199;28;20353;-55
2022/08/23 05:44:03;;;;;;;3.80;0.80;;;;;;;;;;10459188;28;20526;-57
2022/08/23 05:49:04;;;;;;;14.85;1.17;;;;;;;;;;10475193;28;20081;-59
2022/08/23 05:54:07;;;;;;;12.32;1.13;;;;;;;;;;10463770;28;20028;-60
2022/08/23 05:59:16;;;;;;;2.90;1.30;;;;;;;;;;10472127;28;20009;-60
2022/08/23 06:04:16;;;;;;;1.45;1.13;;;;;;;;;;10465776;28;20416;-59
2022/08/23 06:09:18;;;;;;;2.80;0.90;;;;;;;;;;10461448;28;20024;-58
2022/08/23 06:14:18;;;;;;;4.80;0.90;;;;;;;;;;10457398;28;20492;-61
2022/08/23 06:19:19;;;;;;;6.63;1.10;;;;;;;;;;10453419;28;20060;-60
2022/08/23 06:24:20;;;;;;;5.88;1.02;;;;;;;;;;10455881;28;20028;-61
2022/08/23 06:29:21;;;;;;;2.15;1.10;;;;;;;;;;10455539;28;20187;-58
2022/08/23 06:34:34;;;;;;;1.40;1.00;;;;;;;;;;10454026;28;20032;-60
2022/08/23 06:39:36;;;;;;;1.85;1.08;;;;;;;;;;10454534;28;20021;-59
2022/08/23 06:44:37;;;;;;;1.75;0.93;;;;;;;;;;10450364;28;20071;-57
2022/08/23 06:49:38;;;;;;;3.88;1.17;;;;;;;;;;10457929;28;20472;-57
2022/08/23 06:54:39;;;;;;;1.52;1.10;;;;;;;;;;10463033;28;20485;-55
2022/08/23 06:59:39;;;;;;;1.67;1.00;;;;;;;;;;10452697;28;20033;-60
2022/08/23 07:04:40;;;;;;;3.22;1.10;;;;;;;;;;10430995;28;20484;-57
2022/08/23 07:09:41;;;;;;;1.60;1.10;;;;;;;;;;10435489;28;20037;-59
2022/08/23 07:14:41;;;;;;;1.77;1.00;;;;;;;;;;10440392;28;20041;-60
2022/08/23 07:19:44;;;;;;;4.72;1.10;;;;;;;;;;10450800;28;20036;-60
2022/08/23 07:24:45;;;;;;;2.53;1.35;;;;;;;;;;10451648;28;20033;-61
2022/08/23 07:29:46;;;;;;;3.70;1.40;;;;;;;;;;10433081;28;20025;-60
2022/08/23 07:34:46;;;;;;;1.42;1.05;;;;;;;;;;10439795;28;20033;-55
2022/08/23 07:39:47;;;;;;;2.25;0.85;;;;;;;;;;10458951;28;20063;-60
2022/08/23 07:44:48;;;;;;;2.83;1.52;;;;;;;;;;10445119;28;20485;-58
2022/08/23 07:49:48;;;;;;;1.48;1.10;;;;;;;;;;10455807;28;20415;-57
2022/08/23 07:54:49;;;;;;;1.50;0.82;;;;;;;;;;10459914;28;20024;-58
2022/08/23 07:59:50;;;;;;;1.20;0.85;;;;;;;;;;10462869;28;20035;-58
2022/08/23 08:04:50;;;;;;;1.00;0.90;;;;;;;;;;10467187;28;20049;-58
2022/08/23 08:09:51;;;;;;;1.08;0.90;;;;;;;;;;10453255;28;20024;-57
2022/08/23 08:14:52;;;;;;;1.35;1.00;;;;;;;;;;10478045;28;20029;-59
2022/08/23 08:19:52;;;;;;;1.95;1.25;;;;;;;;;;10457711;28;20046;-54
2022/08/23 08:24:53;;;;;;;4.90;1.35;;;;;;;;;;10454515;28;20085;-56
2022/08/23 08:29:54;;;;;;;1.40;1.10;;;;;;;;;;10466506;28;20086;-55
2022/08/23 08:34:54;;;;;;;0.98;0.82;;;;;;;;;;10475027;28;20044;-53
2022/08/23 08:39:55;;;;;;;1.70;0.90;;;;;;;;;;10464569;28;20025;-52
2022/08/23 08:44:59;;;;;;;2.00;0.80;;;;;;;;;;10447220;28;20031;-56
2022/08/23 08:50:05;;;;;;;1.10;0.93;;;;;;;;;;10454082;28;20078;-56
2022/08/23 08:55:22;;;;;;;1.83;1.00;;;;;;;;;;10447129;28;20076;-57
2022/08/23 09:00:29;;;;;;;1.42;1.10;;;;;;;;;;10455678;28;20414;-51
2022/08/23 09:05:35;;;;;;;3.80;1.02;;;;;;;;;;10460371;28;20041;-57
2022/08/23 09:10:50;;;;;;;1.35;1.25;;;;;;;;;;10455058;28;20041;-58
2022/08/23 09:16:09;;;;;;;0.95;0.90;;;;;;;;;;10447590;28;20059;-59
2022/08/23 09:21:09;;;;;;;3.05;1.17;;;;;;;;;;10447562;28;20071;-58
2022/08/23 09:26:29;;;;;;;1.83;1.00;;;;;;;;;;10448963;28;20083;-59
2022/08/23 09:31:42;;;;;;;1.58;0.88;;;;;;;;;;10448735;28;20210;-60
2022/08/23 09:36:42;;;;;;;1.25;1.00;;;;;;;;;;10446797;28;20031;-59
2022/08/23 09:41:45;;;;;;;2.47;1.00;;;;;;;;;;10446848;28;20041;-60
2022/08/23 09:46:45;;;;;;;2.67;1.10;;;;;;;;;;10450305;28;20445;-56
2022/08/23 09:51:47;;;;;;;2.88;1.13;;;;;;;;;;10454770;28;20059;-60
2022/08/23 09:56:56;;;;;;;3.75;1.00;;;;;;;;;;10447952;28;20095;-59
2022/08/23 10:01:59;;;;;;;1.50;0.80;;;;;;;;;;10463717;28;20032;-58
2022/08/23 10:07:19;;;;;;;1.48;0.93;;;;;;;;;;10464851;28;20041;-59
2022/08/23 10:12:19;;;;;;;2.33;1.27;;;;;;;;;;10457137;28;20396;-56
2022/08/23 10:17:45;;;;;;;1.55;1.10;;;;;;;;;;10478236;28;20036;-58
2022/08/23 10:23:11;;;;;;;2.13;1.20;;;;;;;;;;10476747;28;20067;-59
2022/08/23 10:34:12;;;;;;;1.83;1.08;;;;;;;;;;10465672;28;20044;-58
2022/08/23 10:39:25;;;;;;;1.40;1.10;;;;;;;;;;10457057;28;20496;-59
2022/08/23 10:45:02;;;;;;;1.27;1.17;;;;;;;;;;10451064;28;20350;-60
2022/08/23 10:50:21;;;;;;;1.20;1.10;;;;;;;;;;10449028;28;20051;-60
2022/08/23 10:55:38;;;;;;;1.35;1.25;;;;;;;;;;10454011;28;20068;-62
2022/08/23 11:00:40;;;;;;;2.47;1.20;;;;;;;;;;10449802;28;20059;-59
2022/08/23 11:05:42;;;;;;;1.20;1.10;;;;;;;;;;10463592;28;20052;-56
2022/08/23 11:10:48;;;;;;;1.35;1.08;;;;;;;;;;10466542;28;20108;-59
2022/08/23 11:16:14;;;;;;;3.20;0.98;;;;;;;;;;10463081;28;20496;-58
2022/08/23 11:21:17;;;;;;;4.93;1.25;;;;;;;;;;10460281;28;20021;-59
2022/08/23 11:26:21;;;;;;;1.70;1.08;;;;;;;;;;10467927;28;20037;-58
2022/08/23 11:31:48;;;;;;;2.80;1.33;;;;;;;;;;10450066;28;20120;-59
2022/08/23 11:37:20;;;;;;;2.90;1.37;;;;;;;;;;10447605;28;20067;-59
2022/08/23 11:42:22;;;;;;;1.88;1.10;;;;;;;;;;10447177;28;20444;-57
2022/08/23 11:47:42;;;;;;;2.03;1.30;;;;;;;;;;10454119;28;20629;-60
2022/08/23 11:53:14;;;;;;;1.75;1.20;;;;;;;;;;10450658;28;20163;-59
2022/08/23 11:58:42;;;;;;;1.23;1.13;;;;;;;;;;10447429;28;20041;-59
2022/08/23 12:04:07;;;;;;;1.92;1.30;;;;;;;;;;10452635;28;20037;-59
2022/08/23 12:09:32;;;;;;;1.50;1.25;;;;;;;;;;10457991;28;20020;-60
2022/08/23 12:14:52;;;;;;;1.55;1.30;;;;;;;;;;10454897;28;20032;-57
2022/08/23 12:20:04;;;;;;;3.35;1.65;;;;;;;;;;10469938;28;20189;-57
2022/08/23 12:25:07;;;;;;;3.25;1.35;;;;;;;;;;10462548;28;20025;-60
2022/08/23 12:30:26;;;;;;;4.85;1.50;;;;;;;;;;10450257;28;20031;-59
2022/08/23 12:36:14;;;;;;;1.40;1.30;;;;;;;;;;10440166;28;20033;-54
2022/08/23 12:41:27;;;;;;;2.88;1.60;;;;;;;;;;10428934;28;20041;-56
2022/08/23 12:46:34;;;;;;;1.55;1.30;;;;;;;;;;10449118;28;20622;-56
2022/08/23 12:51:48;;;;;;;2.38;1.23;;;;;;;;;;10445582;28;20036;-50
2022/08/23 12:56:53;;;;;;;3.00;1.80;;;;;;;;;;10442544;28;20305;-60
2022/08/23 13:01:53;;;;;;;1.98;1.23;;;;;;;;;;10448972;28;20040;-55
2022/08/23 13:07:03;;;;;;;3.03;1.70;;;;;;;;;;10447919;28;20090;-61
2022/08/23 13:12:07;;;;;;;2.78;1.15;;;;;;;;;;10459091;28;20035;-61
2022/08/23 13:17:26;;;;;;;1.83;1.30;;;;;;;;;;10443752;28;20033;-60
2022/08/23 13:22:36;;;;;;;3.40;1.92;;;;;;;;;;10439656;28;20021;-57
2022/08/23 13:27:56;;;;;;;1.42;1.30;;;;;;;;;;10447573;28;20051;-61
2022/08/23 13:33:02;;;;;;;2.17;1.70;;;;;;;;;;10458458;28;20043;-60
2022/08/23 13:38:28;;;;;;;1.50;1.40;;;;;;;;;;10449375;28;20037;-59
2022/08/23 13:43:31;;;;;;;1.42;1.33;;;;;;;;;;10440729;28;20276;-50
2022/08/23 13:48:33;;;;;;;1.73;1.33;;;;;;;;;;10455665;28;20028;-59
2022/08/23 13:53:33;;;;;;;2.17;1.60;;;;;;;;;;10454489;28;20040;-60
2022/08/23 13:58:34;;;;;;;3.03;1.58;;;;;;;;;;10465411;28;20499;-58
2022/08/23 14:03:35;;;;;;;2.40;1.25;;;;;;;;;;10462383;28;20369;-60
2022/08/23 14:08:36;;;;;;;2.20;1.50;;;;;;;;;;10466087;28;20033;-58
2022/08/23 14:13:36;;;;;;;1.80;1.48;;;;;;;;;;10456824;28;20060;-61
2022/08/23 14:18:37;;;;;;;1.70;1.60;;;;;;;;;;10453824;28;20029;-61
2022/08/23 14:23:38;;;;;;;1.33;1.23;;;;;;;;;;10458830;28;20025;-58
2022/08/23 14:28:39;;;;;;;1.52;1.40;;;;;;;;;;10455315;28;20037;-60
2022/08/23 14:33:39;;;;;;;2.63;1.40;;;;;;;;;;10452888;28;20040;-60
2022/08/23 14:38:41;;;;;;;1.20;1.10;;;;;;;;;;10452672;28;20107;-58
2022/08/23 14:43:41;;;;;;;2.53;1.52;;;;;;;;;;10449446;28;20036;-60
2022/08/23 14:48:42;;;;;;;1.70;1.45;;;;;;;;;;10489308;28;20028;-60
2022/08/23 14:53:42;;;;;;;1.35;1.25;;;;;;;;;;10467413;28;20462;-60
2022/08/23 14:58:43;;;;;;;1.63;1.17;;;;;;;;;;10476153;28;20053;-59
2022/08/23 15:03:45;;;;;;;1.83;1.17;;;;;;;;;;10452178;28;20037;-60
2022/08/23 15:08:47;;;;;;;1.30;1.15;;;;;;;;;;10451541;28;20354;-60
2022/08/23 15:13:47;;;;;;;1.25;1.15;;;;;;;;;;10461038;28;20224;-58
2022/08/23 15:18:51;;;;;;;1.15;1.15;;;;;;;;;;10477493;28;20389;-59
2022/08/23 15:23:51;;;;;;;1.20;1.10;;;;;;;;;;10477966;28;20028;-60
2022/08/23 15:28:52;;;;;;;1.25;1.15;;;;;;;;;;10457551;28;20037;-60
2022/08/23 15:33:53;;;;;;;1.35;1.23;;;;;;;;;;10454077;28;20028;-60
2022/08/23 15:38:53;;;;;;;1.30;1.20;;;;;;;;;;10450625;28;20025;-60
2022/08/23 15:43:54;;;;;;;1.50;1.20;;;;;;;;;;10448956;28;20477;-58
2022/08/23 15:49:04;;;;;;;1.30;1.20;;;;;;;;;;10452176;28;20021;-55
2022/08/23 15:54:05;;;;;;;1.98;1.23;;;;;;;;;;10460262;28;20270;-53
2022/08/23 15:59:10;;;;;;;1.58;1.17;;;;;;;;;;10459727;28;20619;-58
2022/08/23 16:04:11;;;;;;;2.47;1.45;;;;;;;;;;10449117;28;20464;-59
2022/08/23 16:09:23;;;;;;;1.73;1.10;;;;;;;;;;10449247;28;20099;-57
2022/08/23 16:14:24;;;;;;;1.42;1.33;;;;;;;;;;10450187;28;20032;-60
2022/08/23 16:19:26;;;;;;;1.25;1.10;;;;;;;;;;10448235;28;20032;-57
2022/08/23 16:24:26;;;;;;;1.35;1.00;;;;;;;;;;10453195;28;20071;-58
2022/08/23 16:29:32;;;;;;;1.30;1.20;;;;;;;;;;10448401;28;20090;-59
2022/08/23 16:34:33;;;;;;;3.05;1.40;;;;;;;;;;10452047;28;20029;-55
2022/08/23 16:39:35;;;;;;;2.17;1.20;;;;;;;;;;10447222;28;20083;-59
2022/08/23 16:44:36;;;;;;;1.40;1.30;;;;;;;;;;10435434;28;20025;-58
2022/08/23 16:49:37;;;;;;;1.58;1.30;;;;;;;;;;10451199;28;20423;-60
2022/08/23 16:54:38;;;;;;;1.73;1.10;;;;;;;;;;10457914;28;20033;-58
2022/08/23 16:59:38;;;;;;;1.63;1.30;;;;;;;;;;10444799;28;20055;-56
2022/08/23 17:04:39;;;;;;;1.33;1.23;;;;;;;;;;10438670;28;20091;-56
2022/08/23 17:09:40;;;;;;;1.60;1.27;;;;;;;;;;10472972;28;20044;-58
2022/08/23 17:14:44;;;;;;;3.35;1.20;;;;;;;;;;10448370;28;20036;-59
2022/08/23 17:19:44;;;;;;;1.02;0.90;;;;;;;;;;10453529;28;20032;-56
2022/08/23 17:24:45;;;;;;;0.95;0.95;;;;;;;;;;10459151;28;20036;-57
2022/08/23 17:29:45;;;;;;;1.52;1.00;;;;;;;;;;10443310;28;20242;-56
2022/08/23 17:34:46;;;;;;;3.15;1.23;;;;;;;;;;10447167;28;20025;-53
2022/08/23 17:39:48;;;;;;;1.23;1.00;;;;;;;;;;10436257;28;20029;-52
2022/08/23 17:44:48;;;;;;;2.33;1.15;;;;;;;;;;10429867;28;20033;-52
2022/08/23 17:49:49;;;;;;;1.30;1.20;;;;;;;;;;10436779;28;20550;-52
2022/08/23 17:54:50;;;;;;;2.40;1.10;;;;;;;;;;10458564;28;20451;-60
2022/08/23 17:59:51;;;;;;;1.15;1.08;;;;;;;;;;10443958;28;20090;-57
2022/08/23 18:04:52;;;;;;;1.35;1.10;;;;;;;;;;10433011;28;20053;-60
2022/08/23 18:09:53;;;;;;;1.38;1.02;;;;;;;;;;10439980;28;20031;-59
2022/08/23 18:14:53;;;;;;;1.92;1.25;;;;;;;;;;10451001;28;20033;-59
2022/08/23 18:19:54;;;;;;;3.83;2.05;;;;;;;;;;10451082;28;20033;-59
2022/08/23 18:24:54;;;;;;;2.70;1.17;;;;;;;;;;10455395;28;20074;-57
2022/08/23 18:29:55;;;;;;;3.45;1.42;;;;;;;;;;10476946;28;20035;-59
2022/08/23 18:34:56;;;;;;;1.75;1.15;;;;;;;;;;10440860;28;20025;-60
2022/08/23 18:39:56;;;;;;;4.82;1.60;;;;;;;;;;10446959;28;20029;-58
2022/08/23 18:44:57;;;;;;;2.40;1.35;;;;;;;;;;10453549;28;20029;-58
2022/08/23 18:49:58;;;;;;;3.20;1.42;;;;;;;;;;10451513;28;20036;-57
2022/08/23 18:55:00;;;;;;;2.38;1.27;;;;;;;;;;10455541;28;20045;-60
2022/08/23 19:00:03;;;;;;;3.17;1.80;;;;;;;;;;10442443;28;20074;-58
2022/08/23 19:05:04;;;;;;;3.47;1.23;;;;;;;;;;10459495;28;20567;-51
2022/08/23 19:10:06;;;;;;;4.07;1.38;;;;;;;;;;10450054;28;20033;-54
2022/08/23 19:15:08;;;;;;;1.83;1.20;;;;;;;;;;10454511;28;20036;-52
2022/08/23 19:20:09;;;;;;;4.28;1.23;;;;;;;;;;10453201;28;20090;-50
2022/08/23 19:25:11;;;;;;;3.97;1.30;;;;;;;;;;10446828;28;20493;-49
2022/08/23 19:30:12;;;;;;;1.83;1.40;;;;;;;;;;10401072;28;20036;-52
2022/08/23 19:35:13;;;;;;;2.60;1.58;;;;;;;;;;10376166;28;20071;-52
2022/08/23 19:40:14;;;;;;;6.93;1.88;;;;;;;;;;10399565;28;20072;-54
2022/08/23 19:45:14;;;;;;;5.85;1.90;;;;;;;;;;10369358;28;20603;-50
2022/08/23 19:50:18;;;;;;;3.00;1.42;;;;;;;;;;10386793;28;20893;-54
2022/08/23 19:55:20;;;;;;;2.78;1.30;;;;;;;;;;10379739;28;20614;-54
2022/08/23 20:00:22;;;;;;;3.88;1.48;;;;;;;;;;10371792;28;20214;-57
2022/08/23 20:05:23;;;;;;;4.28;1.48;;;;;;;;;;10370360;28;20540;-57
2022/08/23 20:10:23;;;;;;;3.25;1.35;;;;;;;;;;10376399;28;20139;-54
2022/08/23 20:15:24;;;;;;;3.40;1.50;;;;;;;;;;10381908;28;20033;-55
2022/08/23 20:20:24;;;;;;;4.40;1.60;;;;;;;;;;10392307;28;20098;-57
2022/08/23 20:25:25;;;;;;;6.80;1.65;;;;;;;;;;10397211;28;20035;-57
2022/08/23 20:30:26;;;;;;;2.80;1.83;;;;;;;;;;10386285;28;20442;-54
2022/08/23 20:35:26;;;;;;;4.85;1.40;;;;;;;;;;10405443;28;20041;-56
2022/08/23 20:40:27;;;;;;;4.13;1.67;;;;;;;;;;10381742;28;20094;-56
2022/08/23 20:45:27;;;;;;;4.13;1.80;;;;;;;;;;10379626;28;20214;-55
2022/08/23 20:50:29;;;;;;;4.85;1.95;;;;;;;;;;10386497;28;20029;-58
2022/08/23 20:55:29;;;;;;;1.40;1.27;;;;;;;;;;10378344;28;20047;-51
2022/08/23 21:00:30;;;;;;;6.60;1.40;;;;;;;;;;10379917;28;20044;-55
2022/08/23 21:05:31;;;;;;;3.50;1.42;;;;;;;;;;10377498;28;20044;-55
2022/08/23 21:10:31;;;;;;;1.40;1.30;;;;;;;;;;10372037;28;20044;-57
2022/08/23 21:15:34;;;;;;;2.92;1.58;;;;;;;;;;10378014;28;20040;-56
2022/08/23 21:20:34;;;;;;;5.60;1.40;;;;;;;;;;10385532;28;20104;-52
2022/08/23 21:25:35;;;;;;;2.03;1.33;;;;;;;;;;10381745;28;20048;-54
2022/08/23 21:30:37;;;;;;;7.18;1.42;;;;;;;;;;10371841;28;20037;-53
2022/08/23 21:35:38;;;;;;;3.45;1.13;;;;;;;;;;10375147;28;20045;-54
2022/08/23 21:40:39;;;;;;;5.10;1.77;;;;;;;;;;10372776;28;20048;-56
2022/08/23 21:45:40;;;;;;;5.60;1.73;;;;;;;;;;10359929;28;20053;-51
2022/08/23 21:50:41;;;;;;;5.50;1.80;;;;;;;;;;10358444;28;20525;-56
2022/08/23 21:55:42;;;;;;;8.70;1.55;;;;;;;;;;10389301;28;20045;-56
2022/08/23 22:00:43;;;;;;;30.63;3.22;;;;;;;;;;10435547;28;20067;-54
2022/08/23 22:05:45;;;;;;;20.52;2.17;;;;;;;;;;10435493;28;20092;-56
2022/08/23 22:10:46;;;;;;;13.57;2.25;;;;;;;;;;10433116;28;20045;-54
2022/08/23 22:15:47;;;;;;;16.48;2.40;;;;;;;;;;10422063;28;20503;-57
2022/08/23 22:20:47;;;;;;;17.55;2.47;;;;;;;;;;10423518;28;20032;-57
2022/08/23 22:25:48;;;;;;;27.73;2.65;;;;;;;;;;10419827;28;20039;-55
2022/08/23 22:30:49;;;;;;;21.08;2.95;;;;;;;;;;10423642;28;20048;-56
2022/08/23 22:35:49;;;;;;;13.48;2.40;;;;;;;;;;10420768;28;20037;-52
2022/08/23 22:40:51;;;;;;;21.17;2.22;;;;;;;;;;10416670;28;20188;-51
2022/08/23 22:45:58;;;;;;;31.92;2.70;;;;;;;;;;10422183;28;20037;-57
2022/08/23 22:51:12;;;;;;;8.37;2.40;;;;;;;;;;10418411;28;20041;-58
2022/08/23 22:56:18;;;;;;;18.55;2.10;;;;;;;;;;10413290;28;21091;-55
2022/08/23 23:01:36;;;;;;;13.90;2.75;;;;;;;;;;10416542;28;20396;-53
2022/08/23 23:06:37;;;;;;;4.00;1.75;;;;;;;;;;10441552;28;20045;-54
2022/08/23 23:11:39;;;;;;;12.57;2.10;;;;;;;;;;10441874;28;20025;-48
2022/08/23 23:16:41;;;;;;;6.13;1.98;;;;;;;;;;10450681;28;20025;-53
2022/08/23 23:21:50;;;;;;;9.77;2.10;;;;;;;;;;10436546;28;20086;-49
2022/08/23 23:26:50;;;;;;;15.88;2.20;;;;;;;;;;10451829;28;20035;-54
2022/08/23 23:31:52;;;;;;;8.07;2.15;;;;;;;;;;10447353;28;20048;-51
2022/08/23 23:36:55;;;;;;;7.65;2.20;;;;;;;;;;10453355;28;20106;-51
2022/08/23 23:41:56;;;;;;;5.25;1.98;;;;;;;;;;10440588;28;20069;-51
2022/08/23 23:46:56;;;;;;;6.15;1.80;;;;;;;;;;10445060;28;20112;-49
2022/08/23 23:51:57;;;;;;;2.38;1.52;;;;;;;;;;10437655;28;20423;-52
2022/08/23 23:56:58;;;;;;;4.38;1.48;;;;;;;;;;10448426;28;20045;-51
